sensor_id;sensor_type;location;lat;lon;timestamp;P1;durP1;ratioP1;P2;durP2;ratioP2
74963;SDS011;63521;51.900;4.748;2023-04-29T00:04:25;5.60;;;2.92;;
74963;SDS011;63521;51.900;4.748;2023-04-29T00:06:50;5.38;;;2.70;;
74963;SDS011;63521;51.900;4.748;2023-04-29T00:09:16;5.60;;;2.80;;
74963;SDS011;63521;51.900;4.748;2023-04-29T00:11:42;4.72;;;2.70;;
74963;SDS011;63521;51.900;4.748;2023-04-29T00:14:08;5.72;;;2.95;;
74963;SDS011;63521;51.900;4.748;2023-04-29T00:16:34;4.32;;;2.58;;
74963;SDS011;63521;51.900;4.748;2023-04-29T00:18:59;6.85;;;3.35;;
74963;SDS011;63521;51.900;4.748;2023-04-29T00:21:26;4.78;;;2.88;;
74963;SDS011;63521;51.900;4.748;2023-04-29T00:23:52;5.32;;;3.15;;
74963;SDS011;63521;51.900;4.748;2023-04-29T00:26:18;5.82;;;2.80;;
74963;SDS011;63521;51.900;4.748;2023-04-29T00:28:43;5.88;;;2.83;;
74963;SDS011;63521;51.900;4.748;2023-04-29T00:31:09;6.30;;;2.83;;
74963;SDS011;63521;51.900;4.748;2023-04-29T00:33:35;4.47;;;2.83;;
74963;SDS011;63521;51.900;4.748;2023-04-29T00:36:01;5.00;;;2.75;;
74963;SDS011;63521;51.900;4.748;2023-04-29T00:38:28;5.82;;;2.83;;
74963;SDS011;63521;51.900;4.748;2023-04-29T00:40:54;6.97;;;2.85;;
74963;SDS011;63521;51.900;4.748;2023-04-29T00:43:20;5.57;;;3.00;;
74963;SDS011;63521;51.900;4.748;2023-04-29T00:45:45;5.38;;;3.00;;
74963;SDS011;63521;51.900;4.748;2023-04-29T00:48:11;5.32;;;3.50;;
74963;SDS011;63521;51.900;4.748;2023-04-29T00:50:39;6.30;;;3.17;;
74963;SDS011;63521;51.900;4.748;2023-04-29T00:53:06;4.72;;;2.70;;
74963;SDS011;63521;51.900;4.748;2023-04-29T00:55:34;6.05;;;2.97;;
74963;SDS011;63521;51.900;4.748;2023-04-29T00:58:00;4.97;;;2.90;;
74963;SDS011;63521;51.900;4.748;2023-04-29T01:00:29;7.00;;;3.42;;
74963;SDS011;63521;51.900;4.748;2023-04-29T01:02:55;6.18;;;3.33;;
74963;SDS011;63521;51.900;4.748;2023-04-29T01:05:22;6.95;;;3.42;;
74963;SDS011;63521;51.900;4.748;2023-04-29T01:10:27;5.32;;;3.13;;
74963;SDS011;63521;51.900;4.748;2023-04-29T01:15:46;5.55;;;3.22;;
74963;SDS011;63521;51.900;4.748;2023-04-29T01:20:47;7.10;;;3.80;;
74963;SDS011;63521;51.900;4.748;2023-04-29T01:23:13;5.75;;;3.20;;
74963;SDS011;63521;51.900;4.748;2023-04-29T01:25:38;6.57;;;3.65;;
74963;SDS011;63521;51.900;4.748;2023-04-29T01:28:12;6.30;;;3.67;;
74963;SDS011;63521;51.900;4.748;2023-04-29T01:30:49;6.65;;;3.35;;
74963;SDS011;63521;51.900;4.748;2023-04-29T01:44:48;5.15;;;2.92;;
74963;SDS011;63521;51.900;4.748;2023-04-29T01:47:15;5.97;;;2.95;;
74963;SDS011;63521;51.900;4.748;2023-04-29T01:49:41;6.00;;;3.20;;
74963;SDS011;63521;51.900;4.748;2023-04-29T01:52:09;7.80;;;2.83;;
74963;SDS011;63521;51.900;4.748;2023-04-29T01:54:37;5.80;;;2.92;;
74963;SDS011;63521;51.900;4.748;2023-04-29T01:57:03;5.55;;;2.90;;
74963;SDS011;63521;51.900;4.748;2023-04-29T01:59:28;5.82;;;3.33;;
74963;SDS011;63521;51.900;4.748;2023-04-29T02:01:55;6.18;;;3.00;;
74963;SDS011;63521;51.900;4.748;2023-04-29T02:04:23;5.93;;;3.13;;
74963;SDS011;63521;51.900;4.748;2023-04-29T02:06:52;5.75;;;3.13;;
74963;SDS011;63521;51.900;4.748;2023-04-29T02:09:18;5.63;;;2.90;;
74963;SDS011;63521;51.900;4.748;2023-04-29T02:11:43;4.88;;;2.80;;
74963;SDS011;63521;51.900;4.748;2023-04-29T02:14:09;5.82;;;3.17;;
74963;SDS011;63521;51.900;4.748;2023-04-29T02:16:36;6.30;;;2.90;;
74963;SDS011;63521;51.900;4.748;2023-04-29T02:19:02;4.22;;;2.90;;
74963;SDS011;63521;51.900;4.748;2023-04-29T02:21:31;7.55;;;3.05;;
74963;SDS011;63521;51.900;4.748;2023-04-29T02:24:00;5.07;;;2.65;;
74963;SDS011;63521;51.900;4.748;2023-04-29T02:26:25;4.35;;;2.63;;
74963;SDS011;63521;51.900;4.748;2023-04-29T02:28:51;7.72;;;3.20;;
74963;SDS011;63521;51.900;4.748;2023-04-29T02:31:16;6.50;;;3.42;;
74963;SDS011;63521;51.900;4.748;2023-04-29T02:33:42;4.45;;;2.53;;
74963;SDS011;63521;51.900;4.748;2023-04-29T02:36:08;4.68;;;2.80;;
74963;SDS011;63521;51.900;4.748;2023-04-29T02:38:34;4.45;;;2.90;;
74963;SDS011;63521;51.900;4.748;2023-04-29T02:40:59;4.20;;;2.58;;
74963;SDS011;63521;51.900;4.748;2023-04-29T02:43:25;4.85;;;2.63;;
74963;SDS011;63521;51.900;4.748;2023-04-29T02:45:50;5.53;;;2.92;;
74963;SDS011;63521;51.900;4.748;2023-04-29T02:48:17;5.15;;;2.67;;
74963;SDS011;63521;51.900;4.748;2023-04-29T02:50:43;5.00;;;2.65;;
74963;SDS011;63521;51.900;4.748;2023-04-29T02:53:09;3.85;;;2.38;;
74963;SDS011;63521;51.900;4.748;2023-04-29T02:55:34;4.60;;;2.78;;
74963;SDS011;63521;51.900;4.748;2023-04-29T02:57:59;3.65;;;2.47;;
74963;SDS011;63521;51.900;4.748;2023-04-29T03:00:25;4.70;;;2.72;;
74963;SDS011;63521;51.900;4.748;2023-04-29T03:02:50;4.50;;;2.70;;
74963;SDS011;63521;51.900;4.748;2023-04-29T03:05:16;5.25;;;3.10;;
74963;SDS011;63521;51.900;4.748;2023-04-29T03:07:43;4.25;;;2.30;;
74963;SDS011;63521;51.900;4.748;2023-04-29T03:10:09;4.95;;;2.67;;
74963;SDS011;63521;51.900;4.748;2023-04-29T03:12:34;3.63;;;2.20;;
74963;SDS011;63521;51.900;4.748;2023-04-29T03:15:00;4.43;;;2.40;;
74963;SDS011;63521;51.900;4.748;2023-04-29T03:17:26;5.00;;;2.97;;
74963;SDS011;63521;51.900;4.748;2023-04-29T03:19:51;3.67;;;2.45;;
74963;SDS011;63521;51.900;4.748;2023-04-29T03:22:18;4.28;;;2.60;;
74963;SDS011;63521;51.900;4.748;2023-04-29T03:24:44;4.85;;;2.95;;
74963;SDS011;63521;51.900;4.748;2023-04-29T03:27:10;4.45;;;2.72;;
74963;SDS011;63521;51.900;4.748;2023-04-29T03:29:36;4.95;;;2.70;;
74963;SDS011;63521;51.900;4.748;2023-04-29T03:32:03;5.93;;;2.80;;
74963;SDS011;63521;51.900;4.748;2023-04-29T03:34:28;4.57;;;2.58;;
74963;SDS011;63521;51.900;4.748;2023-04-29T03:36:54;4.70;;;2.88;;
74963;SDS011;63521;51.900;4.748;2023-04-29T03:39:19;4.47;;;3.08;;
74963;SDS011;63521;51.900;4.748;2023-04-29T03:41:46;5.32;;;2.85;;
74963;SDS011;63521;51.900;4.748;2023-04-29T03:44:11;6.90;;;2.97;;
74963;SDS011;63521;51.900;4.748;2023-04-29T03:46:37;4.88;;;2.55;;
74963;SDS011;63521;51.900;4.748;2023-04-29T03:49:03;4.82;;;2.70;;
74963;SDS011;63521;51.900;4.748;2023-04-29T03:51:30;4.32;;;2.70;;
74963;SDS011;63521;51.900;4.748;2023-04-29T03:53:58;5.38;;;2.75;;
74963;SDS011;63521;51.900;4.748;2023-04-29T03:56:23;4.30;;;2.30;;
74963;SDS011;63521;51.900;4.748;2023-04-29T03:58:52;5.05;;;2.60;;
74963;SDS011;63521;51.900;4.748;2023-04-29T04:01:18;5.05;;;2.78;;
74963;SDS011;63521;51.900;4.748;2023-04-29T04:04:03;3.97;;;2.58;;
74963;SDS011;63521;51.900;4.748;2023-04-29T04:06:29;4.38;;;2.60;;
74963;SDS011;63521;51.900;4.748;2023-04-29T04:08:55;4.00;;;2.60;;
74963;SDS011;63521;51.900;4.748;2023-04-29T04:11:21;4.18;;;2.50;;
74963;SDS011;63521;51.900;4.748;2023-04-29T04:13:47;3.97;;;2.78;;
74963;SDS011;63521;51.900;4.748;2023-04-29T04:16:14;5.38;;;2.55;;
74963;SDS011;63521;51.900;4.748;2023-04-29T04:18:39;5.75;;;3.00;;
74963;SDS011;63521;51.900;4.748;2023-04-29T04:21:06;3.10;;;2.20;;
74963;SDS011;63521;51.900;4.748;2023-04-29T04:23:32;4.38;;;2.72;;
74963;SDS011;63521;51.900;4.748;2023-04-29T04:25:58;4.10;;;2.63;;
74963;SDS011;63521;51.900;4.748;2023-04-29T04:28:24;4.95;;;2.33;;
74963;SDS011;63521;51.900;4.748;2023-04-29T04:30:50;4.10;;;2.40;;
74963;SDS011;63521;51.900;4.748;2023-04-29T04:33:16;4.25;;;2.28;;
74963;SDS011;63521;51.900;4.748;2023-04-29T04:35:41;4.50;;;2.25;;
74963;SDS011;63521;51.900;4.748;2023-04-29T04:38:07;4.72;;;2.75;;
74963;SDS011;63521;51.900;4.748;2023-04-29T04:40:33;2.83;;;2.00;;
74963;SDS011;63521;51.900;4.748;2023-04-29T04:42:59;3.63;;;2.40;;
74963;SDS011;63521;51.900;4.748;2023-04-29T04:45:24;3.42;;;2.15;;
74963;SDS011;63521;51.900;4.748;2023-04-29T04:47:52;3.15;;;2.00;;
74963;SDS011;63521;51.900;4.748;2023-04-29T04:50:18;3.80;;;2.20;;
74963;SDS011;63521;51.900;4.748;2023-04-29T04:52:45;3.97;;;2.53;;
74963;SDS011;63521;51.900;4.748;2023-04-29T04:55:10;3.65;;;2.15;;
74963;SDS011;63521;51.900;4.748;2023-04-29T04:57:36;3.58;;;2.35;;
74963;SDS011;63521;51.900;4.748;2023-04-29T05:00:02;3.40;;;2.42;;
74963;SDS011;63521;51.900;4.748;2023-04-29T05:02:29;2.70;;;1.90;;
74963;SDS011;63521;51.900;4.748;2023-04-29T05:04:55;4.20;;;2.20;;
74963;SDS011;63521;51.900;4.748;2023-04-29T05:07:20;3.15;;;2.05;;
74963;SDS011;63521;51.900;4.748;2023-04-29T05:09:46;3.42;;;2.20;;
74963;SDS011;63521;51.900;4.748;2023-04-29T05:12:11;5.25;;;2.53;;
74963;SDS011;63521;51.900;4.748;2023-04-29T05:14:37;3.53;;;2.35;;
74963;SDS011;63521;51.900;4.748;2023-04-29T05:17:03;4.78;;;2.05;;
74963;SDS011;63521;51.900;4.748;2023-04-29T05:19:28;2.47;;;1.77;;
74963;SDS011;63521;51.900;4.748;2023-04-29T05:21:56;3.38;;;2.13;;
74963;SDS011;63521;51.900;4.748;2023-04-29T05:24:21;3.05;;;1.92;;
74963;SDS011;63521;51.900;4.748;2023-04-29T05:26:47;2.40;;;1.90;;
74963;SDS011;63521;51.900;4.748;2023-04-29T05:29:15;3.33;;;2.33;;
74963;SDS011;63521;51.900;4.748;2023-04-29T05:31:43;3.85;;;1.92;;
74963;SDS011;63521;51.900;4.748;2023-04-29T05:34:09;3.83;;;2.10;;
74963;SDS011;63521;51.900;4.748;2023-04-29T05:36:37;3.10;;;2.10;;
74963;SDS011;63521;51.900;4.748;2023-04-29T05:39:02;3.83;;;2.30;;
74963;SDS011;63521;51.900;4.748;2023-04-29T05:41:28;3.03;;;2.10;;
74963;SDS011;63521;51.900;4.748;2023-04-29T05:43:54;3.88;;;2.58;;
74963;SDS011;63521;51.900;4.748;2023-04-29T05:46:20;3.50;;;1.92;;
74963;SDS011;63521;51.900;4.748;2023-04-29T06:00:29;2.83;;;1.90;;
74963;SDS011;63521;51.900;4.748;2023-04-29T06:03:05;3.65;;;2.20;;
74963;SDS011;63521;51.900;4.748;2023-04-29T06:08:15;3.90;;;2.30;;
74963;SDS011;63521;51.900;4.748;2023-04-29T06:10:40;4.45;;;2.65;;
74963;SDS011;63521;51.900;4.748;2023-04-29T06:13:06;3.90;;;2.28;;
74963;SDS011;63521;51.900;4.748;2023-04-29T06:15:31;3.90;;;2.50;;
74963;SDS011;63521;51.900;4.748;2023-04-29T06:17:58;5.60;;;2.60;;
74963;SDS011;63521;51.900;4.748;2023-04-29T06:20:23;4.13;;;2.67;;
74963;SDS011;63521;51.900;4.748;2023-04-29T06:22:50;4.47;;;2.85;;
74963;SDS011;63521;51.900;4.748;2023-04-29T06:25:16;5.65;;;2.80;;
74963;SDS011;63521;51.900;4.748;2023-04-29T06:27:41;5.40;;;2.78;;
74963;SDS011;63521;51.900;4.748;2023-04-29T06:30:08;4.22;;;2.50;;
74963;SDS011;63521;51.900;4.748;2023-04-29T06:32:34;4.97;;;2.72;;
74963;SDS011;63521;51.900;4.748;2023-04-29T06:34:59;6.10;;;2.97;;
74963;SDS011;63521;51.900;4.748;2023-04-29T06:37:25;4.63;;;2.78;;
74963;SDS011;63521;51.900;4.748;2023-04-29T06:39:52;5.00;;;2.90;;
74963;SDS011;63521;51.900;4.748;2023-04-29T06:42:19;6.78;;;2.80;;
74963;SDS011;63521;51.900;4.748;2023-04-29T06:44:45;4.40;;;2.70;;
74963;SDS011;63521;51.900;4.748;2023-04-29T06:47:11;5.95;;;3.22;;
74963;SDS011;63521;51.900;4.748;2023-04-29T06:49:36;4.75;;;2.92;;
74963;SDS011;63521;51.900;4.748;2023-04-29T06:52:02;5.85;;;3.20;;
74963;SDS011;63521;51.900;4.748;2023-04-29T06:54:27;6.57;;;3.05;;
74963;SDS011;63521;51.900;4.748;2023-04-29T06:56:56;5.70;;;2.88;;
74963;SDS011;63521;51.900;4.748;2023-04-29T06:59:23;5.20;;;3.28;;
74963;SDS011;63521;51.900;4.748;2023-04-29T07:01:48;6.15;;;3.30;;
74963;SDS011;63521;51.900;4.748;2023-04-29T07:04:15;7.57;;;3.15;;
74963;SDS011;63521;51.900;4.748;2023-04-29T07:06:43;6.32;;;3.05;;
74963;SDS011;63521;51.900;4.748;2023-04-29T07:09:13;6.88;;;3.63;;
74963;SDS011;63521;51.900;4.748;2023-04-29T07:11:39;6.10;;;3.35;;
74963;SDS011;63521;51.900;4.748;2023-04-29T07:14:04;5.22;;;2.95;;
74963;SDS011;63521;51.900;4.748;2023-04-29T07:16:31;6.05;;;3.30;;
74963;SDS011;63521;51.900;4.748;2023-04-29T07:18:57;6.10;;;3.28;;
74963;SDS011;63521;51.900;4.748;2023-04-29T07:21:24;5.72;;;3.08;;
74963;SDS011;63521;51.900;4.748;2023-04-29T07:23:50;7.05;;;3.47;;
74963;SDS011;63521;51.900;4.748;2023-04-29T07:26:16;4.97;;;3.28;;
74963;SDS011;63521;51.900;4.748;2023-04-29T07:28:42;5.85;;;3.15;;
74963;SDS011;63521;51.900;4.748;2023-04-29T07:31:09;7.47;;;3.80;;
74963;SDS011;63521;51.900;4.748;2023-04-29T07:33:36;7.20;;;3.20;;
74963;SDS011;63521;51.900;4.748;2023-04-29T07:36:02;6.43;;;3.42;;
74963;SDS011;63521;51.900;4.748;2023-04-29T07:38:29;5.65;;;3.30;;
74963;SDS011;63521;51.900;4.748;2023-04-29T07:40:55;6.00;;;3.35;;
74963;SDS011;63521;51.900;4.748;2023-04-29T07:43:20;6.97;;;3.30;;
74963;SDS011;63521;51.900;4.748;2023-04-29T07:45:47;5.88;;;3.33;;
74963;SDS011;63521;51.900;4.748;2023-04-29T07:48:14;5.10;;;3.17;;
74963;SDS011;63521;51.900;4.748;2023-04-29T07:50:39;7.90;;;3.40;;
74963;SDS011;63521;51.900;4.748;2023-04-29T07:53:05;5.78;;;3.35;;
74963;SDS011;63521;51.900;4.748;2023-04-29T07:55:32;6.35;;;3.38;;
74963;SDS011;63521;51.900;4.748;2023-04-29T07:57:58;5.20;;;2.78;;
74963;SDS011;63521;51.900;4.748;2023-04-29T08:00:24;6.93;;;3.40;;
74963;SDS011;63521;51.900;4.748;2023-04-29T08:02:50;5.25;;;2.95;;
74963;SDS011;63521;51.900;4.748;2023-04-29T08:05:16;6.10;;;3.42;;
74963;SDS011;63521;51.900;4.748;2023-04-29T08:07:42;6.05;;;2.80;;
74963;SDS011;63521;51.900;4.748;2023-04-29T08:10:08;6.60;;;2.90;;
74963;SDS011;63521;51.900;4.748;2023-04-29T08:12:33;6.47;;;3.30;;
74963;SDS011;63521;51.900;4.748;2023-04-29T08:17:36;6.60;;;3.40;;
74963;SDS011;63521;51.900;4.748;2023-04-29T08:20:02;5.63;;;2.83;;
74963;SDS011;63521;51.900;4.748;2023-04-29T08:22:28;6.03;;;2.97;;
74963;SDS011;63521;51.900;4.748;2023-04-29T08:24:53;4.53;;;2.83;;
74963;SDS011;63521;51.900;4.748;2023-04-29T08:27:19;5.43;;;3.00;;
74963;SDS011;63521;51.900;4.748;2023-04-29T08:29:47;4.50;;;2.80;;
74963;SDS011;63521;51.900;4.748;2023-04-29T08:32:13;4.80;;;2.90;;
74963;SDS011;63521;51.900;4.748;2023-04-29T08:34:39;3.85;;;2.42;;
74963;SDS011;63521;51.900;4.748;2023-04-29T08:37:06;6.18;;;2.65;;
74963;SDS011;63521;51.900;4.748;2023-04-29T08:39:31;4.32;;;2.63;;
74963;SDS011;63521;51.900;4.748;2023-04-29T08:41:58;4.68;;;2.80;;
74963;SDS011;63521;51.900;4.748;2023-04-29T08:44:27;5.00;;;2.75;;
74963;SDS011;63521;51.900;4.748;2023-04-29T08:46:54;4.70;;;2.75;;
74963;SDS011;63521;51.900;4.748;2023-04-29T08:49:21;4.35;;;2.28;;
74963;SDS011;63521;51.900;4.748;2023-04-29T08:51:47;4.35;;;2.42;;
74963;SDS011;63521;51.900;4.748;2023-04-29T08:54:15;4.60;;;2.80;;
74963;SDS011;63521;51.900;4.748;2023-04-29T08:56:46;5.53;;;2.55;;
74963;SDS011;63521;51.900;4.748;2023-04-29T08:59:13;4.57;;;2.65;;
74963;SDS011;63521;51.900;4.748;2023-04-29T09:01:41;3.45;;;2.28;;
74963;SDS011;63521;51.900;4.748;2023-04-29T09:04:28;4.43;;;2.05;;
74963;SDS011;63521;51.900;4.748;2023-04-29T09:06:59;3.65;;;2.15;;
74963;SDS011;63521;51.900;4.748;2023-04-29T09:09:27;3.17;;;2.30;;
74963;SDS011;63521;51.900;4.748;2023-04-29T09:11:53;3.53;;;2.58;;
74963;SDS011;63521;51.900;4.748;2023-04-29T09:14:20;5.35;;;2.50;;
74963;SDS011;63521;51.900;4.748;2023-04-29T09:16:47;3.67;;;2.20;;
74963;SDS011;63521;51.900;4.748;2023-04-29T09:19:32;2.70;;;1.90;;
74963;SDS011;63521;51.900;4.748;2023-04-29T09:21:59;3.13;;;2.10;;
74963;SDS011;63521;51.900;4.748;2023-04-29T09:24:26;5.00;;;2.40;;
74963;SDS011;63521;51.900;4.748;2023-04-29T09:26:52;4.18;;;2.55;;
74963;SDS011;63521;51.900;4.748;2023-04-29T09:29:18;2.75;;;2.20;;
74963;SDS011;63521;51.900;4.748;2023-04-29T09:31:43;3.10;;;2.20;;
74963;SDS011;63521;51.900;4.748;2023-04-29T09:34:09;3.20;;;2.33;;
74963;SDS011;63521;51.900;4.748;2023-04-29T09:36:40;2.92;;;2.20;;
74963;SDS011;63521;51.900;4.748;2023-04-29T09:39:09;2.85;;;2.03;;
74963;SDS011;63521;51.900;4.748;2023-04-29T09:41:37;3.88;;;2.13;;
74963;SDS011;63521;51.900;4.748;2023-04-29T09:44:04;3.45;;;2.20;;
74963;SDS011;63521;51.900;4.748;2023-04-29T09:46:33;2.78;;;2.10;;
74963;SDS011;63521;51.900;4.748;2023-04-29T09:49:26;3.60;;;1.92;;
74963;SDS011;63521;51.900;4.748;2023-04-29T09:51:56;3.25;;;2.30;;
74963;SDS011;63521;51.900;4.748;2023-04-29T09:54:23;2.97;;;2.20;;
74963;SDS011;63521;51.900;4.748;2023-04-29T09:56:50;3.17;;;2.17;;
74963;SDS011;63521;51.900;4.748;2023-04-29T09:59:19;3.97;;;2.33;;
74963;SDS011;63521;51.900;4.748;2023-04-29T10:01:48;5.25;;;3.03;;
74963;SDS011;63521;51.900;4.748;2023-04-29T10:04:18;8.43;;;5.07;;
74963;SDS011;63521;51.900;4.748;2023-04-29T10:06:47;5.10;;;3.10;;
74963;SDS011;63521;51.900;4.748;2023-04-29T10:09:19;12.48;;;5.30;;
74963;SDS011;63521;51.900;4.748;2023-04-29T10:11:52;9.93;;;4.90;;
74963;SDS011;63521;51.900;4.748;2023-04-29T10:18:52;7.90;;;4.53;;
74963;SDS011;63521;51.900;4.748;2023-04-29T10:21:24;9.15;;;4.70;;
74963;SDS011;63521;51.900;4.748;2023-04-29T10:23:53;9.55;;;5.22;;
74963;SDS011;63521;51.900;4.748;2023-04-29T10:26:26;7.72;;;4.68;;
74963;SDS011;63521;51.900;4.748;2023-04-29T10:28:55;8.25;;;4.65;;
74963;SDS011;63521;51.900;4.748;2023-04-29T10:31:21;7.97;;;4.63;;
74963;SDS011;63521;51.900;4.748;2023-04-29T10:33:46;8.00;;;4.13;;
74963;SDS011;63521;51.900;4.748;2023-04-29T10:36:12;6.90;;;4.53;;
74963;SDS011;63521;51.900;4.748;2023-04-29T10:38:41;7.15;;;4.50;;
74963;SDS011;63521;51.900;4.748;2023-04-29T10:41:19;8.50;;;5.00;;
74963;SDS011;63521;51.900;4.748;2023-04-29T10:43:45;7.30;;;4.60;;
74963;SDS011;63521;51.900;4.748;2023-04-29T10:48:47;7.18;;;4.22;;
74963;SDS011;63521;51.900;4.748;2023-04-29T10:51:30;7.40;;;4.65;;
74963;SDS011;63521;51.900;4.748;2023-04-29T10:56:35;6.72;;;4.53;;
74963;SDS011;63521;51.900;4.748;2023-04-29T10:59:03;8.75;;;4.70;;
74963;SDS011;63521;51.900;4.748;2023-04-29T11:06:51;7.68;;;4.20;;
74963;SDS011;63521;51.900;4.748;2023-04-29T11:09:28;8.73;;;4.80;;
74963;SDS011;63521;51.900;4.748;2023-04-29T11:11:56;8.73;;;4.65;;
74963;SDS011;63521;51.900;4.748;2023-04-29T11:14:31;7.65;;;3.72;;
74963;SDS011;63521;51.900;4.748;2023-04-29T11:17:11;6.55;;;3.40;;
74963;SDS011;63521;51.900;4.748;2023-04-29T11:19:42;5.07;;;2.83;;
74963;SDS011;63521;51.900;4.748;2023-04-29T11:22:14;5.07;;;2.92;;
74963;SDS011;63521;51.900;4.748;2023-04-29T11:25:01;4.53;;;3.10;;
74963;SDS011;63521;51.900;4.748;2023-04-29T11:27:31;3.67;;;2.70;;
74963;SDS011;63521;51.900;4.748;2023-04-29T11:29:59;4.00;;;2.35;;
74963;SDS011;63521;51.900;4.748;2023-04-29T11:32:27;5.40;;;2.50;;
74963;SDS011;63521;51.900;4.748;2023-04-29T11:34:53;4.70;;;2.13;;
74963;SDS011;63521;51.900;4.748;2023-04-29T11:37:21;4.97;;;2.47;;
74963;SDS011;63521;51.900;4.748;2023-04-29T11:39:50;3.50;;;2.20;;
74963;SDS011;63521;51.900;4.748;2023-04-29T11:42:18;5.90;;;2.58;;
74963;SDS011;63521;51.900;4.748;2023-04-29T11:44:50;3.00;;;2.10;;
74963;SDS011;63521;51.900;4.748;2023-04-29T11:47:19;4.30;;;2.60;;
74963;SDS011;63521;51.900;4.748;2023-04-29T11:49:45;4.20;;;2.63;;
74963;SDS011;63521;51.900;4.748;2023-04-29T11:52:11;4.05;;;2.70;;
74963;SDS011;63521;51.900;4.748;2023-04-29T11:54:37;4.10;;;2.40;;
74963;SDS011;63521;51.900;4.748;2023-04-29T11:57:02;6.82;;;2.58;;
74963;SDS011;63521;51.900;4.748;2023-04-29T11:59:30;4.35;;;2.60;;
74963;SDS011;63521;51.900;4.748;2023-04-29T12:01:57;3.83;;;2.20;;
74963;SDS011;63521;51.900;4.748;2023-04-29T12:04:25;3.17;;;2.42;;
74963;SDS011;63521;51.900;4.748;2023-04-29T12:06:51;4.18;;;2.50;;
74963;SDS011;63521;51.900;4.748;2023-04-29T12:09:18;4.38;;;2.40;;
74963;SDS011;63521;51.900;4.748;2023-04-29T12:11:44;5.28;;;2.20;;
74963;SDS011;63521;51.900;4.748;2023-04-29T12:14:14;3.95;;;2.70;;
74963;SDS011;63521;51.900;4.748;2023-04-29T12:16:40;3.90;;;2.38;;
74963;SDS011;63521;51.900;4.748;2023-04-29T12:19:12;3.10;;;2.20;;
74963;SDS011;63521;51.900;4.748;2023-04-29T12:21:47;4.10;;;2.08;;
74963;SDS011;63521;51.900;4.748;2023-04-29T12:24:13;5.10;;;1.92;;
74963;SDS011;63521;51.900;4.748;2023-04-29T12:26:43;4.68;;;2.47;;
74963;SDS011;63521;51.900;4.748;2023-04-29T12:29:11;4.05;;;2.20;;
74963;SDS011;63521;51.900;4.748;2023-04-29T12:31:37;3.65;;;2.03;;
74963;SDS011;63521;51.900;4.748;2023-04-29T12:34:03;4.72;;;2.20;;
74963;SDS011;63521;51.900;4.748;2023-04-29T12:36:30;4.93;;;2.50;;
74963;SDS011;63521;51.900;4.748;2023-04-29T12:38:57;3.00;;;2.20;;
74963;SDS011;63521;51.900;4.748;2023-04-29T12:41:39;2.25;;;1.90;;
74963;SDS011;63521;51.900;4.748;2023-04-29T12:44:05;3.03;;;1.83;;
74963;SDS011;63521;51.900;4.748;2023-04-29T12:46:35;3.15;;;1.80;;
74963;SDS011;63521;51.900;4.748;2023-04-29T12:49:02;3.55;;;2.05;;
74963;SDS011;63521;51.900;4.748;2023-04-29T12:51:29;2.67;;;1.75;;
74963;SDS011;63521;51.900;4.748;2023-04-29T12:53:57;2.50;;;1.92;;
74963;SDS011;63521;51.900;4.748;2023-04-29T12:56:23;2.10;;;1.70;;
74963;SDS011;63521;51.900;4.748;2023-04-29T12:58:50;3.47;;;1.90;;
74963;SDS011;63521;51.900;4.748;2023-04-29T13:01:15;3.05;;;1.80;;
74963;SDS011;63521;51.900;4.748;2023-04-29T13:03:41;2.53;;;1.88;;
74963;SDS011;63521;51.900;4.748;2023-04-29T13:06:07;1.88;;;1.63;;
74963;SDS011;63521;51.900;4.748;2023-04-29T13:08:33;2.58;;;1.70;;
74963;SDS011;63521;51.900;4.748;2023-04-29T13:10:58;2.20;;;1.67;;
74963;SDS011;63521;51.900;4.748;2023-04-29T13:13:30;2.47;;;1.70;;
74963;SDS011;63521;51.900;4.748;2023-04-29T13:15:55;2.22;;;1.65;;
74963;SDS011;63521;51.900;4.748;2023-04-29T13:18:24;3.30;;;1.67;;
74963;SDS011;63521;51.900;4.748;2023-04-29T13:21:34;1.70;;;1.58;;
74963;SDS011;63521;51.900;4.748;2023-04-29T13:24:02;2.83;;;1.55;;
74963;SDS011;63521;51.900;4.748;2023-04-29T13:26:32;2.30;;;1.50;;
74963;SDS011;63521;51.900;4.748;2023-04-29T13:29:00;1.88;;;1.50;;
74963;SDS011;63521;51.900;4.748;2023-04-29T13:31:25;2.22;;;1.50;;
74963;SDS011;63521;51.900;4.748;2023-04-29T13:33:52;2.38;;;1.55;;
74963;SDS011;63521;51.900;4.748;2023-04-29T13:36:20;2.30;;;1.65;;
74963;SDS011;63521;51.900;4.748;2023-04-29T13:38:45;2.28;;;1.50;;
74963;SDS011;63521;51.900;4.748;2023-04-29T13:41:12;4.03;;;2.35;;
74963;SDS011;63521;51.900;4.748;2023-04-29T13:43:38;5.47;;;2.58;;
74963;SDS011;63521;51.900;4.748;2023-04-29T13:46:04;4.47;;;2.53;;
74963;SDS011;63521;51.900;4.748;2023-04-29T13:48:30;5.07;;;2.38;;
74963;SDS011;63521;51.900;4.748;2023-04-29T13:50:55;4.25;;;1.98;;
74963;SDS011;63521;51.900;4.748;2023-04-29T13:53:20;6.03;;;2.10;;
74963;SDS011;63521;51.900;4.748;2023-04-29T13:55:46;4.75;;;1.95;;
74963;SDS011;63521;51.900;4.748;2023-04-29T13:58:11;4.65;;;2.22;;
74963;SDS011;63521;51.900;4.748;2023-04-29T14:00:37;2.88;;;1.90;;
74963;SDS011;63521;51.900;4.748;2023-04-29T14:03:05;4.35;;;1.90;;
74963;SDS011;63521;51.900;4.748;2023-04-29T14:05:32;3.10;;;1.83;;
74963;SDS011;63521;51.900;4.748;2023-04-29T14:07:58;5.35;;;1.90;;
74963;SDS011;63521;51.900;4.748;2023-04-29T14:10:23;2.88;;;1.63;;
74963;SDS011;63521;51.900;4.748;2023-04-29T14:12:53;2.53;;;1.83;;
74963;SDS011;63521;51.900;4.748;2023-04-29T14:15:19;2.90;;;1.60;;
74963;SDS011;63521;51.900;4.748;2023-04-29T14:17:48;4.22;;;1.92;;
74963;SDS011;63521;51.900;4.748;2023-04-29T14:20:14;2.47;;;1.85;;
74963;SDS011;63521;51.900;4.748;2023-04-29T14:22:40;2.13;;;1.60;;
74963;SDS011;63521;51.900;4.748;2023-04-29T14:25:05;2.63;;;1.70;;
74963;SDS011;63521;51.900;4.748;2023-04-29T14:27:35;2.65;;;1.60;;
74963;SDS011;63521;51.900;4.748;2023-04-29T14:30:00;2.85;;;1.73;;
74963;SDS011;63521;51.900;4.748;2023-04-29T14:32:26;2.22;;;1.67;;
74963;SDS011;63521;51.900;4.748;2023-04-29T14:34:53;3.38;;;2.13;;
74963;SDS011;63521;51.900;4.748;2023-04-29T14:37:20;3.58;;;1.85;;
74963;SDS011;63521;51.900;4.748;2023-04-29T14:39:46;3.78;;;1.63;;
74963;SDS011;63521;51.900;4.748;2023-04-29T14:42:12;3.15;;;1.73;;
74963;SDS011;63521;51.900;4.748;2023-04-29T14:44:39;3.10;;;1.60;;
74963;SDS011;63521;51.900;4.748;2023-04-29T14:47:04;5.65;;;1.90;;
74963;SDS011;63521;51.900;4.748;2023-04-29T14:49:30;2.17;;;1.60;;
74963;SDS011;63521;51.900;4.748;2023-04-29T14:51:56;3.92;;;1.70;;
74963;SDS011;63521;51.900;4.748;2023-04-29T14:54:21;3.25;;;1.70;;
74963;SDS011;63521;51.900;4.748;2023-04-29T14:56:47;2.65;;;2.13;;
74963;SDS011;63521;51.900;4.748;2023-04-29T14:59:13;2.50;;;1.83;;
74963;SDS011;63521;51.900;4.748;2023-04-29T15:01:38;2.92;;;1.80;;
74963;SDS011;63521;51.900;4.748;2023-04-29T15:04:04;4.20;;;1.77;;
74963;SDS011;63521;51.900;4.748;2023-04-29T15:06:31;2.22;;;1.88;;
74963;SDS011;63521;51.900;4.748;2023-04-29T15:08:58;2.50;;;1.63;;
74963;SDS011;63521;51.900;4.748;2023-04-29T15:11:25;3.13;;;1.80;;
74963;SDS011;63521;51.900;4.748;2023-04-29T15:13:50;2.28;;;1.83;;
74963;SDS011;63521;51.900;4.748;2023-04-29T15:16:16;1.88;;;1.67;;
74963;SDS011;63521;51.900;4.748;2023-04-29T15:18:41;2.00;;;1.70;;
74963;SDS011;63521;51.900;4.748;2023-04-29T15:21:07;2.45;;;1.60;;
74963;SDS011;63521;51.900;4.748;2023-04-29T15:23:34;2.60;;;1.90;;
74963;SDS011;63521;51.900;4.748;2023-04-29T15:26:00;2.50;;;1.70;;
74963;SDS011;63521;51.900;4.748;2023-04-29T15:28:25;3.00;;;1.98;;
74963;SDS011;63521;51.900;4.748;2023-04-29T15:30:50;5.35;;;2.20;;
74963;SDS011;63521;51.900;4.748;2023-04-29T15:33:16;1.90;;;1.70;;
74963;SDS011;63521;51.900;4.748;2023-04-29T15:35:41;2.75;;;1.83;;
74963;SDS011;63521;51.900;4.748;2023-04-29T15:38:07;2.42;;;1.70;;
74963;SDS011;63521;51.900;4.748;2023-04-29T15:40:33;2.58;;;1.80;;
74963;SDS011;63521;51.900;4.748;2023-04-29T15:42:59;4.22;;;2.50;;